sensor_id;sensor_type;location;lat;lon;timestamp;P1;durP1;ratioP1;P2;durP2;ratioP2
67193;SDS011;54121;53.508;49.422;2022-07-12T00:00:38;12.02;;;7.03;;
67193;SDS011;54121;53.508;49.422;2022-07-12T00:03:05;9.20;;;6.97;;
67193;SDS011;54121;53.508;49.422;2022-07-12T00:05:31;8.30;;;6.80;;
67193;SDS011;54121;53.508;49.422;2022-07-12T00:07:58;9.85;;;6.88;;
67193;SDS011;54121;53.508;49.422;2022-07-12T00:10:24;10.80;;;6.95;;
67193;SDS011;54121;53.508;49.422;2022-07-12T00:12:51;15.50;;;7.20;;
67193;SDS011;54121;53.508;49.422;2022-07-12T00:15:18;9.68;;;6.75;;
67193;SDS011;54121;53.508;49.422;2022-07-12T00:17:44;7.93;;;6.22;;
67193;SDS011;54121;53.508;49.422;2022-07-12T00:20:11;7.50;;;6.38;;
67193;SDS011;54121;53.508;49.422;2022-07-12T00:22:37;9.32;;;6.18;;
67193;SDS011;54121;53.508;49.422;2022-07-12T00:25:04;7.40;;;6.70;;
67193;SDS011;54121;53.508;49.422;2022-07-12T00:27:31;8.43;;;6.32;;
67193;SDS011;54121;53.508;49.422;2022-07-12T00:29:58;10.02;;;6.05;;
67193;SDS011;54121;53.508;49.422;2022-07-12T00:32:24;11.43;;;5.97;;
67193;SDS011;54121;53.508;49.422;2022-07-12T00:34:51;10.95;;;5.95;;
67193;SDS011;54121;53.508;49.422;2022-07-12T00:37:17;9.55;;;5.55;;
67193;SDS011;54121;53.508;49.422;2022-07-12T00:39:44;11.95;;;6.28;;
67193;SDS011;54121;53.508;49.422;2022-07-12T00:42:10;9.27;;;6.13;;
67193;SDS011;54121;53.508;49.422;2022-07-12T00:44:37;9.05;;;5.60;;
67193;SDS011;54121;53.508;49.422;2022-07-12T00:47:03;6.90;;;5.47;;
67193;SDS011;54121;53.508;49.422;2022-07-12T00:49:31;10.45;;;6.00;;
67193;SDS011;54121;53.508;49.422;2022-07-12T00:51:58;12.02;;;5.55;;
67193;SDS011;54121;53.508;49.422;2022-07-12T00:54:24;13.55;;;6.47;;
67193;SDS011;54121;53.508;49.422;2022-07-12T00:56:51;13.73;;;6.03;;
67193;SDS011;54121;53.508;49.422;2022-07-12T00:59:17;8.23;;;5.70;;
67193;SDS011;54121;53.508;49.422;2022-07-12T01:01:44;8.48;;;5.72;;
67193;SDS011;54121;53.508;49.422;2022-07-12T01:04:11;14.43;;;5.97;;
67193;SDS011;54121;53.508;49.422;2022-07-12T01:06:38;9.57;;;5.72;;
67193;SDS011;54121;53.508;49.422;2022-07-12T01:09:05;9.27;;;5.82;;
67193;SDS011;54121;53.508;49.422;2022-07-12T01:11:34;6.32;;;5.40;;
67193;SDS011;54121;53.508;49.422;2022-07-12T01:14:01;8.32;;;6.20;;
67193;SDS011;54121;53.508;49.422;2022-07-12T01:16:28;9.77;;;6.10;;
67193;SDS011;54121;53.508;49.422;2022-07-12T01:18:57;7.65;;;5.80;;
67193;SDS011;54121;53.508;49.422;2022-07-12T01:21:24;7.57;;;5.22;;
67193;SDS011;54121;53.508;49.422;2022-07-12T01:23:57;7.63;;;5.90;;
67193;SDS011;54121;53.508;49.422;2022-07-12T01:26:24;6.78;;;5.57;;
67193;SDS011;54121;53.508;49.422;2022-07-12T01:28:51;9.20;;;5.28;;
67193;SDS011;54121;53.508;49.422;2022-07-12T01:31:18;10.48;;;5.13;;
67193;SDS011;54121;53.508;49.422;2022-07-12T01:33:47;8.50;;;5.63;;
67193;SDS011;54121;53.508;49.422;2022-07-12T01:36:13;6.47;;;5.50;;
67193;SDS011;54121;53.508;49.422;2022-07-12T01:38:40;7.65;;;5.22;;
67193;SDS011;54121;53.508;49.422;2022-07-12T01:41:06;6.97;;;4.88;;
67193;SDS011;54121;53.508;49.422;2022-07-12T01:43:33;7.60;;;4.95;;
67193;SDS011;54121;53.508;49.422;2022-07-12T01:46:00;12.05;;;5.78;;
67193;SDS011;54121;53.508;49.422;2022-07-12T01:48:26;7.82;;;5.00;;
67193;SDS011;54121;53.508;49.422;2022-07-12T01:50:54;6.68;;;5.22;;
67193;SDS011;54121;53.508;49.422;2022-07-12T01:53:20;7.88;;;5.18;;
67193;SDS011;54121;53.508;49.422;2022-07-12T01:55:47;9.50;;;5.57;;
67193;SDS011;54121;53.508;49.422;2022-07-12T01:58:13;7.50;;;4.72;;
67193;SDS011;54121;53.508;49.422;2022-07-12T02:00:41;9.50;;;5.28;;
67193;SDS011;54121;53.508;49.422;2022-07-12T02:03:07;11.30;;;5.65;;
67193;SDS011;54121;53.508;49.422;2022-07-12T02:05:34;10.77;;;4.97;;
67193;SDS011;54121;53.508;49.422;2022-07-12T02:08:01;6.63;;;5.13;;
67193;SDS011;54121;53.508;49.422;2022-07-12T02:10:27;8.32;;;4.78;;
67193;SDS011;54121;53.508;49.422;2022-07-12T02:12:54;8.15;;;4.78;;
67193;SDS011;54121;53.508;49.422;2022-07-12T02:15:20;10.75;;;5.50;;
67193;SDS011;54121;53.508;49.422;2022-07-12T02:17:47;6.95;;;4.75;;
67193;SDS011;54121;53.508;49.422;2022-07-12T02:20:13;7.82;;;5.05;;
67193;SDS011;54121;53.508;49.422;2022-07-12T02:22:40;7.82;;;4.82;;
67193;SDS011;54121;53.508;49.422;2022-07-12T02:25:06;6.75;;;5.00;;
67193;SDS011;54121;53.508;49.422;2022-07-12T02:27:33;8.40;;;4.85;;
67193;SDS011;54121;53.508;49.422;2022-07-12T02:30:00;6.55;;;4.53;;
67193;SDS011;54121;53.508;49.422;2022-07-12T02:32:27;5.13;;;4.43;;
67193;SDS011;54121;53.508;49.422;2022-07-12T02:34:53;5.85;;;4.32;;
67193;SDS011;54121;53.508;49.422;2022-07-12T02:37:20;6.90;;;4.63;;
67193;SDS011;54121;53.508;49.422;2022-07-12T02:39:46;8.10;;;4.82;;
67193;SDS011;54121;53.508;49.422;2022-07-12T02:42:13;9.55;;;4.80;;
67193;SDS011;54121;53.508;49.422;2022-07-12T02:44:39;8.63;;;4.80;;
67193;SDS011;54121;53.508;49.422;2022-07-12T02:47:06;8.32;;;4.57;;
67193;SDS011;54121;53.508;49.422;2022-07-12T02:49:33;7.00;;;4.63;;
67193;SDS011;54121;53.508;49.422;2022-07-12T02:51:59;7.00;;;4.20;;
67193;SDS011;54121;53.508;49.422;2022-07-12T02:54:26;6.95;;;4.18;;
67193;SDS011;54121;53.508;49.422;2022-07-12T02:56:52;8.25;;;4.75;;
67193;SDS011;54121;53.508;49.422;2022-07-12T02:59:19;6.05;;;4.50;;
67193;SDS011;54121;53.508;49.422;2022-07-12T03:01:45;6.90;;;4.57;;
67193;SDS011;54121;53.508;49.422;2022-07-12T03:04:12;12.63;;;4.20;;
67193;SDS011;54121;53.508;49.422;2022-07-12T03:06:38;9.00;;;4.53;;
67193;SDS011;54121;53.508;49.422;2022-07-12T03:09:05;5.63;;;4.03;;
67193;SDS011;54121;53.508;49.422;2022-07-12T03:11:31;5.22;;;4.00;;
67193;SDS011;54121;53.508;49.422;2022-07-12T03:13:58;4.95;;;4.40;;
67193;SDS011;54121;53.508;49.422;2022-07-12T03:16:25;7.55;;;4.47;;
67193;SDS011;54121;53.508;49.422;2022-07-12T03:18:52;8.57;;;4.13;;
67193;SDS011;54121;53.508;49.422;2022-07-12T03:21:18;7.55;;;4.10;;
67193;SDS011;54121;53.508;49.422;2022-07-12T03:23:45;11.55;;;3.90;;
67193;SDS011;54121;53.508;49.422;2022-07-12T03:26:11;10.85;;;4.57;;
67193;SDS011;54121;53.508;49.422;2022-07-12T03:28:38;6.45;;;3.85;;
67193;SDS011;54121;53.508;49.422;2022-07-12T03:31:04;11.70;;;3.97;;
67193;SDS011;54121;53.508;49.422;2022-07-12T03:33:31;6.18;;;3.88;;
67193;SDS011;54121;53.508;49.422;2022-07-12T03:35:58;5.65;;;3.83;;
67193;SDS011;54121;53.508;49.422;2022-07-12T03:38:25;5.18;;;3.90;;
67193;SDS011;54121;53.508;49.422;2022-07-12T03:40:52;7.82;;;3.50;;
67193;SDS011;54121;53.508;49.422;2022-07-12T03:43:19;7.15;;;3.58;;
67193;SDS011;54121;53.508;49.422;2022-07-12T03:45:45;8.20;;;3.60;;
67193;SDS011;54121;53.508;49.422;2022-07-12T03:48:12;4.85;;;3.25;;
67193;SDS011;54121;53.508;49.422;2022-07-12T03:50:39;7.35;;;3.78;;
67193;SDS011;54121;53.508;49.422;2022-07-12T03:53:05;8.57;;;3.92;;
67193;SDS011;54121;53.508;49.422;2022-07-12T03:55:32;5.05;;;3.67;;
67193;SDS011;54121;53.508;49.422;2022-07-12T03:57:58;6.70;;;4.00;;
67193;SDS011;54121;53.508;49.422;2022-07-12T04:00:25;6.93;;;3.53;;
67193;SDS011;54121;53.508;49.422;2022-07-12T04:02:51;10.57;;;3.40;;
67193;SDS011;54121;53.508;49.422;2022-07-12T04:05:20;8.20;;;3.40;;
67193;SDS011;54121;53.508;49.422;2022-07-12T04:07:51;6.78;;;3.78;;
67193;SDS011;54121;53.508;49.422;2022-07-12T04:10:19;4.00;;;3.35;;
67193;SDS011;54121;53.508;49.422;2022-07-12T04:12:46;8.27;;;3.42;;
67193;SDS011;54121;53.508;49.422;2022-07-12T04:15:12;5.78;;;3.58;;
67193;SDS011;54121;53.508;49.422;2022-07-12T04:17:39;4.93;;;3.13;;
67193;SDS011;54121;53.508;49.422;2022-07-12T04:20:05;5.65;;;3.33;;
67193;SDS011;54121;53.508;49.422;2022-07-12T04:22:32;3.95;;;3.00;;
67193;SDS011;54121;53.508;49.422;2022-07-12T04:24:59;4.70;;;3.42;;
67193;SDS011;54121;53.508;49.422;2022-07-12T04:27:25;8.55;;;3.33;;
67193;SDS011;54121;53.508;49.422;2022-07-12T04:29:52;5.07;;;3.45;;
67193;SDS011;54121;53.508;49.422;2022-07-12T04:32:19;4.15;;;3.20;;
67193;SDS011;54121;53.508;49.422;2022-07-12T04:34:45;8.88;;;3.45;;
67193;SDS011;54121;53.508;49.422;2022-07-12T04:37:12;11.48;;;3.67;;
67193;SDS011;54121;53.508;49.422;2022-07-12T04:39:38;4.70;;;3.45;;
67193;SDS011;54121;53.508;49.422;2022-07-12T04:42:05;4.55;;;3.47;;
67193;SDS011;54121;53.508;49.422;2022-07-12T04:44:31;6.57;;;3.10;;
67193;SDS011;54121;53.508;49.422;2022-07-12T04:46:58;4.75;;;3.30;;
67193;SDS011;54121;53.508;49.422;2022-07-12T04:49:24;9.52;;;3.63;;
67193;SDS011;54121;53.508;49.422;2022-07-12T04:51:51;3.67;;;3.10;;
67193;SDS011;54121;53.508;49.422;2022-07-12T04:54:17;6.25;;;2.80;;
67193;SDS011;54121;53.508;49.422;2022-07-12T04:56:44;7.53;;;3.30;;
67193;SDS011;54121;53.508;49.422;2022-07-12T04:59:10;5.32;;;3.20;;
67193;SDS011;54121;53.508;49.422;2022-07-12T05:01:37;5.22;;;3.30;;
67193;SDS011;54121;53.508;49.422;2022-07-12T05:04:03;8.32;;;3.05;;
67193;SDS011;54121;53.508;49.422;2022-07-12T05:06:30;4.60;;;3.03;;
67193;SDS011;54121;53.508;49.422;2022-07-12T05:08:56;5.97;;;3.08;;
67193;SDS011;54121;53.508;49.422;2022-07-12T05:11:23;5.65;;;3.25;;
67193;SDS011;54121;53.508;49.422;2022-07-12T05:13:50;8.55;;;3.10;;
67193;SDS011;54121;53.508;49.422;2022-07-12T05:16:17;6.82;;;3.28;;
67193;SDS011;54121;53.508;49.422;2022-07-12T05:18:44;4.07;;;2.92;;
67193;SDS011;54121;53.508;49.422;2022-07-12T05:21:10;4.85;;;3.08;;
67193;SDS011;54121;53.508;49.422;2022-07-12T05:23:37;7.38;;;3.47;;
67193;SDS011;54121;53.508;49.422;2022-07-12T05:26:04;8.50;;;2.93;;
67193;SDS011;54121;53.508;49.422;2022-07-12T05:28:31;4.80;;;2.85;;
67193;SDS011;54121;53.508;49.422;2022-07-12T05:30:57;3.22;;;2.35;;
67193;SDS011;54121;53.508;49.422;2022-07-12T05:33:24;5.45;;;3.08;;
67193;SDS011;54121;53.508;49.422;2022-07-12T05:35:51;3.80;;;2.60;;
67193;SDS011;54121;53.508;49.422;2022-07-12T05:38:18;5.07;;;2.55;;
67193;SDS011;54121;53.508;49.422;2022-07-12T05:40:44;6.00;;;3.05;;
67193;SDS011;54121;53.508;49.422;2022-07-12T05:43:11;5.18;;;2.78;;
67193;SDS011;54121;53.508;49.422;2022-07-12T05:45:37;6.10;;;2.65;;
67193;SDS011;54121;53.508;49.422;2022-07-12T05:48:04;4.55;;;2.28;;
67193;SDS011;54121;53.508;49.422;2022-07-12T05:50:31;7.53;;;3.05;;
67193;SDS011;54121;53.508;49.422;2022-07-12T05:52:57;5.57;;;2.75;;
67193;SDS011;54121;53.508;49.422;2022-07-12T05:55:42;8.25;;;3.03;;
67193;SDS011;54121;53.508;49.422;2022-07-12T05:58:10;11.63;;;2.53;;
67193;SDS011;54121;53.508;49.422;2022-07-12T06:00:37;14.23;;;2.45;;
67193;SDS011;54121;53.508;49.422;2022-07-12T06:03:03;6.40;;;3.20;;
67193;SDS011;54121;53.508;49.422;2022-07-12T06:05:30;4.20;;;2.67;;
67193;SDS011;54121;53.508;49.422;2022-07-12T06:07:57;5.57;;;2.80;;
67193;SDS011;54121;53.508;49.422;2022-07-12T06:10:23;6.07;;;2.75;;
67193;SDS011;54121;53.508;49.422;2022-07-12T06:12:50;8.25;;;2.75;;
67193;SDS011;54121;53.508;49.422;2022-07-12T06:15:16;10.27;;;3.45;;
67193;SDS011;54121;53.508;49.422;2022-07-12T06:17:43;7.32;;;3.00;;
67193;SDS011;54121;53.508;49.422;2022-07-12T06:20:10;6.82;;;2.50;;
67193;SDS011;54121;53.508;49.422;2022-07-12T06:22:37;8.13;;;2.90;;
67193;SDS011;54121;53.508;49.422;2022-07-12T06:25:03;4.63;;;2.55;;
67193;SDS011;54121;53.508;49.422;2022-07-12T06:27:30;5.03;;;2.45;;
67193;SDS011;54121;53.508;49.422;2022-07-12T06:29:57;4.93;;;2.78;;
67193;SDS011;54121;53.508;49.422;2022-07-12T06:32:24;8.55;;;2.78;;
67193;SDS011;54121;53.508;49.422;2022-07-12T06:34:50;5.63;;;2.22;;
67193;SDS011;54121;53.508;49.422;2022-07-12T06:37:17;7.20;;;2.30;;
67193;SDS011;54121;53.508;49.422;2022-07-12T06:39:43;6.95;;;1.95;;
67193;SDS011;54121;53.508;49.422;2022-07-12T06:42:10;12.18;;;2.75;;
67193;SDS011;54121;53.508;49.422;2022-07-12T06:44:36;8.15;;;2.58;;
67193;SDS011;54121;53.508;49.422;2022-07-12T06:47:03;7.05;;;2.55;;
67193;SDS011;54121;53.508;49.422;2022-07-12T06:49:30;10.90;;;2.45;;
67193;SDS011;54121;53.508;49.422;2022-07-12T06:51:56;5.03;;;2.47;;
67193;SDS011;54121;53.508;49.422;2022-07-12T06:54:23;8.27;;;2.78;;
67193;SDS011;54121;53.508;49.422;2022-07-12T06:56:50;5.53;;;2.40;;
67193;SDS011;54121;53.508;49.422;2022-07-12T06:59:17;6.22;;;2.47;;
67193;SDS011;54121;53.508;49.422;2022-07-12T07:01:44;5.35;;;2.05;;
67193;SDS011;54121;53.508;49.422;2022-07-12T07:04:10;5.28;;;2.80;;
67193;SDS011;54121;53.508;49.422;2022-07-12T07:06:37;6.40;;;2.60;;
67193;SDS011;54121;53.508;49.422;2022-07-12T07:09:04;8.52;;;2.58;;
67193;SDS011;54121;53.508;49.422;2022-07-12T07:11:33;5.97;;;2.50;;
67193;SDS011;54121;53.508;49.422;2022-07-12T07:14:01;6.30;;;2.63;;
67193;SDS011;54121;53.508;49.422;2022-07-12T07:16:27;4.57;;;2.70;;
67193;SDS011;54121;53.508;49.422;2022-07-12T07:18:54;5.57;;;2.40;;
67193;SDS011;54121;53.508;49.422;2022-07-12T07:21:20;6.20;;;3.13;;
67193;SDS011;54121;53.508;49.422;2022-07-12T07:23:47;6.60;;;2.33;;
67193;SDS011;54121;53.508;49.422;2022-07-12T07:26:13;3.38;;;2.10;;
67193;SDS011;54121;53.508;49.422;2022-07-12T07:28:40;5.85;;;2.45;;
67193;SDS011;54121;53.508;49.422;2022-07-12T07:31:25;6.38;;;2.60;;
67193;SDS011;54121;53.508;49.422;2022-07-12T07:33:52;3.92;;;2.45;;
67193;SDS011;54121;53.508;49.422;2022-07-12T07:36:18;4.53;;;2.45;;
67193;SDS011;54121;53.508;49.422;2022-07-12T07:38:45;2.40;;;2.20;;
67193;SDS011;54121;53.508;49.422;2022-07-12T07:41:11;6.95;;;2.83;;
67193;SDS011;54121;53.508;49.422;2022-07-12T07:43:38;6.10;;;2.50;;
67193;SDS011;54121;53.508;49.422;2022-07-12T07:46:04;5.55;;;2.65;;
67193;SDS011;54121;53.508;49.422;2022-07-12T07:48:43;6.53;;;2.38;;
67193;SDS011;54121;53.508;49.422;2022-07-12T07:51:09;4.10;;;2.53;;
67193;SDS011;54121;53.508;49.422;2022-07-12T07:53:42;2.88;;;2.03;;
67193;SDS011;54121;53.508;49.422;2022-07-12T07:56:08;9.00;;;2.40;;
67193;SDS011;54121;53.508;49.422;2022-07-12T07:58:35;4.53;;;2.00;;
67193;SDS011;54121;53.508;49.422;2022-07-12T08:01:01;8.57;;;2.58;;
67193;SDS011;54121;53.508;49.422;2022-07-12T08:03:39;7.68;;;2.78;;
67193;SDS011;54121;53.508;49.422;2022-07-12T08:06:28;8.60;;;2.30;;
67193;SDS011;54121;53.508;49.422;2022-07-12T08:08:55;6.40;;;2.45;;
67193;SDS011;54121;53.508;49.422;2022-07-12T08:11:22;5.60;;;2.42;;
67193;SDS011;54121;53.508;49.422;2022-07-12T08:13:48;5.15;;;2.63;;
67193;SDS011;54121;53.508;49.422;2022-07-12T08:16:14;8.18;;;2.53;;
67193;SDS011;54121;53.508;49.422;2022-07-12T08:18:41;8.25;;;1.85;;
67193;SDS011;54121;53.508;49.422;2022-07-12T08:21:07;5.60;;;2.17;;
67193;SDS011;54121;53.508;49.422;2022-07-12T08:23:34;3.78;;;2.30;;
67193;SDS011;54121;53.508;49.422;2022-07-12T08:26:11;5.78;;;2.17;;
67193;SDS011;54121;53.508;49.422;2022-07-12T08:28:38;5.45;;;2.30;;
67193;SDS011;54121;53.508;49.422;2022-07-12T08:31:04;5.68;;;2.00;;
67193;SDS011;54121;53.508;49.422;2022-07-12T08:33:31;3.53;;;2.17;;
67193;SDS011;54121;53.508;49.422;2022-07-12T08:35:57;7.13;;;2.22;;
67193;SDS011;54121;53.508;49.422;2022-07-12T08:38:24;4.43;;;2.15;;
67193;SDS011;54121;53.508;49.422;2022-07-12T08:40:50;3.90;;;2.30;;
67193;SDS011;54121;53.508;49.422;2022-07-12T08:43:18;14.87;;;3.60;;
67193;SDS011;54121;53.508;49.422;2022-07-12T08:45:44;3.65;;;2.28;;
67193;SDS011;54121;53.508;49.422;2022-07-12T08:48:11;2.10;;;1.88;;
67193;SDS011;54121;53.508;49.422;2022-07-12T08:50:37;5.15;;;2.38;;
67193;SDS011;54121;53.508;49.422;2022-07-12T08:53:09;4.00;;;2.15;;
67193;SDS011;54121;53.508;49.422;2022-07-12T08:55:41;4.28;;;2.58;;
67193;SDS011;54121;53.508;49.422;2022-07-12T08:58:14;4.18;;;2.38;;
67193;SDS011;54121;53.508;49.422;2022-07-12T09:00:42;6.68;;;2.50;;
67193;SDS011;54121;53.508;49.422;2022-07-12T09:03:09;3.30;;;1.98;;
67193;SDS011;54121;53.508;49.422;2022-07-12T09:05:37;14.45;;;2.53;;
67193;SDS011;54121;53.508;49.422;2022-07-12T09:08:12;6.68;;;2.60;;
67193;SDS011;54121;53.508;49.422;2022-07-12T09:10:54;7.95;;;2.63;;
67193;SDS011;54121;53.508;49.422;2022-07-12T09:14:05;9.70;;;2.40;;
67193;SDS011;54121;53.508;49.422;2022-07-12T09:16:18;5.93;;;2.10;;
67193;SDS011;54121;53.508;49.422;2022-07-12T09:18:46;6.38;;;2.60;;
67193;SDS011;54121;53.508;49.422;2022-07-12T09:23:59;12.00;;;3.15;;
67193;SDS011;54121;53.508;49.422;2022-07-12T09:26:32;4.65;;;2.45;;
67193;SDS011;54121;53.508;49.422;2022-07-12T09:29:08;3.50;;;2.10;;
67193;SDS011;54121;53.508;49.422;2022-07-12T09:32:10;6.93;;;2.60;;
67193;SDS011;54121;53.508;49.422;2022-07-12T09:34:59;5.13;;;2.10;;
67193;SDS011;54121;53.508;49.422;2022-07-12T09:37:45;8.15;;;2.90;;
67193;SDS011;54121;53.508;49.422;2022-07-12T09:40:12;12.27;;;2.22;;
67193;SDS011;54121;53.508;49.422;2022-07-12T09:42:39;3.72;;;2.20;;
67193;SDS011;54121;53.508;49.422;2022-07-12T09:45:09;4.78;;;2.10;;
67193;SDS011;54121;53.508;49.422;2022-07-12T09:47:36;7.95;;;2.20;;
67193;SDS011;54121;53.508;49.422;2022-07-12T09:50:04;6.13;;;2.47;;
67193;SDS011;54121;53.508;49.422;2022-07-12T09:52:32;4.75;;;2.20;;
67193;SDS011;54121;53.508;49.422;2022-07-12T09:55:03;3.70;;;2.20;;
67193;SDS011;54121;53.508;49.422;2022-07-12T09:57:32;6.38;;;2.70;;
67193;SDS011;54121;53.508;49.422;2022-07-12T10:00:00;5.70;;;2.28;;
67193;SDS011;54121;53.508;49.422;2022-07-12T10:02:33;6.70;;;2.25;;
67193;SDS011;54121;53.508;49.422;2022-07-12T10:05:01;3.35;;;1.92;;
67193;SDS011;54121;53.508;49.422;2022-07-12T10:07:31;6.38;;;2.10;;
67193;SDS011;54121;53.508;49.422;2022-07-12T10:09:58;4.50;;;1.93;;
67193;SDS011;54121;53.508;49.422;2022-07-12T10:12:25;3.03;;;2.15;;
67193;SDS011;54121;53.508;49.422;2022-07-12T10:14:57;4.18;;;1.80;;
67193;SDS011;54121;53.508;49.422;2022-07-12T10:17:27;6.53;;;1.92;;
67193;SDS011;54121;53.508;49.422;2022-07-12T10:22:48;5.45;;;2.17;;
67193;SDS011;54121;53.508;49.422;2022-07-12T10:25:27;7.60;;;2.47;;
67193;SDS011;54121;53.508;49.422;2022-07-12T10:27:59;7.35;;;2.03;;
67193;SDS011;54121;53.508;49.422;2022-07-12T10:32:54;7.97;;;2.05;;
67193;SDS011;54121;53.508;49.422;2022-07-12T10:35:27;7.35;;;1.73;;
67193;SDS011;54121;53.508;49.422;2022-07-12T10:40:38;4.47;;;1.90;;
67193;SDS011;54121;53.508;49.422;2022-07-12T10:45:37;6.07;;;1.95;;
67193;SDS011;54121;53.508;49.422;2022-07-12T10:48:08;1.95;;;1.52;;
67193;SDS011;54121;53.508;49.422;2022-07-12T11:01:24;10.00;;;1.83;;
67193;SDS011;54121;53.508;49.422;2022-07-12T11:03:56;5.35;;;2.10;;
67193;SDS011;54121;53.508;49.422;2022-07-12T11:09:52;4.70;;;2.10;;
67193;SDS011;54121;53.508;49.422;2022-07-12T11:12:28;3.60;;;2.13;;
67193;SDS011;54121;53.508;49.422;2022-07-12T11:15:01;16.80;;;3.08;;
67193;SDS011;54121;53.508;49.422;2022-07-12T11:17:29;11.57;;;1.83;;
67193;SDS011;54121;53.508;49.422;2022-07-12T11:22:32;3.63;;;1.85;;
67193;SDS011;54121;53.508;49.422;2022-07-12T11:24:59;9.02;;;2.47;;
67193;SDS011;54121;53.508;49.422;2022-07-12T11:27:26;6.60;;;1.98;;
67193;SDS011;54121;53.508;49.422;2022-07-12T11:29:59;3.10;;;1.60;;
67193;SDS011;54121;53.508;49.422;2022-07-12T11:32:36;5.38;;;2.05;;
67193;SDS011;54121;53.508;49.422;2022-07-12T11:35:16;12.75;;;2.70;;
67193;SDS011;54121;53.508;49.422;2022-07-12T11:37:51;8.23;;;2.28;;
67193;SDS011;54121;53.508;49.422;2022-07-12T11:40:26;4.20;;;2.00;;
67193;SDS011;54121;53.508;49.422;2022-07-12T11:42:55;8.52;;;2.65;;
67193;SDS011;54121;53.508;49.422;2022-07-12T11:45:24;33.92;;;3.70;;
67193;SDS011;54121;53.508;49.422;2022-07-12T11:50:18;42.45;;;3.97;;
67193;SDS011;54121;53.508;49.422;2022-07-12T11:52:45;40.67;;;3.95;;
67193;SDS011;54121;53.508;49.422;2022-07-12T11:55:12;47.15;;;4.68;;
67193;SDS011;54121;53.508;49.422;2022-07-12T11:57:39;42.13;;;4.88;;
67193;SDS011;54121;53.508;49.422;2022-07-12T12:00:39;27.55;;;3.33;;
67193;SDS011;54121;53.508;49.422;2022-07-12T12:03:17;24.92;;;3.10;;
67193;SDS011;54121;53.508;49.422;2022-07-12T12:05:48;19.92;;;3.47;;
67193;SDS011;54121;53.508;49.422;2022-07-12T12:08:16;8.38;;;2.78;;
67193;SDS011;54121;53.508;49.422;2022-07-12T12:10:44;12.32;;;2.42;;
67193;SDS011;54121;53.508;49.422;2022-07-12T12:13:20;3.35;;;1.55;;
67193;SDS011;54121;53.508;49.422;2022-07-12T12:15:50;4.90;;;1.30;;
67193;SDS011;54121;53.508;49.422;2022-07-12T12:21:04;4.90;;;1.00;;
67193;SDS011;54121;53.508;49.422;2022-07-12T12:23:31;4.40;;;1.25;;
67193;SDS011;54121;53.508;49.422;2022-07-12T12:28:44;1.65;;;0.80;;
67193;SDS011;54121;53.508;49.422;2022-07-12T12:31:15;3.70;;;1.00;;
67193;SDS011;54121;53.508;49.422;2022-07-12T12:33:44;4.35;;;1.10;;
67193;SDS011;54121;53.508;49.422;2022-07-12T12:36:16;4.00;;;1.02;;
67193;SDS011;54121;53.508;49.422;2022-07-12T12:38:48;3.50;;;1.20;;
67193;SDS011;54121;53.508;49.422;2022-07-12T12:41:26;5.05;;;1.30;;
67193;SDS011;54121;53.508;49.422;2022-07-12T12:43:57;2.35;;;1.08;;
67193;SDS011;54121;53.508;49.422;2022-07-12T12:50:10;6.90;;;1.80;;
67193;SDS011;54121;53.508;49.422;2022-07-12T12:52:30;4.55;;;1.48;;
67193;SDS011;54121;53.508;49.422;2022-07-12T12:54:57;1.55;;;1.25;;
67193;SDS011;54121;53.508;49.422;2022-07-12T12:57:24;6.82;;;2.03;;
67193;SDS011;54121;53.508;49.422;2022-07-12T12:59:51;4.88;;;1.60;;
67193;SDS011;54121;53.508;49.422;2022-07-12T13:02:19;3.47;;;1.70;;
67193;SDS011;54121;53.508;49.422;2022-07-12T13:04:46;3.70;;;2.35;;
67193;SDS011;54121;53.508;49.422;2022-07-12T13:07:12;5.18;;;1.65;;
67193;SDS011;54121;53.508;49.422;2022-07-12T13:09:39;3.08;;;1.60;;
67193;SDS011;54121;53.508;49.422;2022-07-12T13:12:06;4.15;;;1.83;;
67193;SDS011;54121;53.508;49.422;2022-07-12T13:14:34;2.60;;;1.73;;
67193;SDS011;54121;53.508;49.422;2022-07-12T13:17:01;10.77;;;2.15;;
67193;SDS011;54121;53.508;49.422;2022-07-12T13:19:27;5.30;;;2.00;;
67193;SDS011;54121;53.508;49.422;2022-07-12T13:21:54;8.50;;;2.35;;
67193;SDS011;54121;53.508;49.422;2022-07-12T13:24:20;3.50;;;1.70;;
67193;SDS011;54121;53.508;49.422;2022-07-12T13:26:47;5.57;;;2.50;;
67193;SDS011;54121;53.508;49.422;2022-07-12T13:29:13;5.82;;;2.35;;
67193;SDS011;54121;53.508;49.422;2022-07-12T13:31:41;5.30;;;1.65;;
67193;SDS011;54121;53.508;49.422;2022-07-12T13:34:07;7.93;;;1.60;;
67193;SDS011;54121;53.508;49.422;2022-07-12T13:36:34;3.20;;;1.67;;
67193;SDS011;54121;53.508;49.422;2022-07-12T13:39:00;5.22;;;2.33;;
67193;SDS011;54121;53.508;49.422;2022-07-12T13:41:47;3.20;;;1.40;;
67193;SDS011;54121;53.508;49.422;2022-07-12T13:44:13;4.93;;;1.50;;
67193;SDS011;54121;53.508;49.422;2022-07-12T13:46:40;2.97;;;1.40;;
67193;SDS011;54121;53.508;49.422;2022-07-12T13:49:06;8.20;;;1.52;;
67193;SDS011;54121;53.508;49.422;2022-07-12T13:51:33;3.17;;;1.63;;
67193;SDS011;54121;53.508;49.422;2022-07-12T13:54:00;3.42;;;1.67;;
67193;SDS011;54121;53.508;49.422;2022-07-12T13:56:26;5.57;;;1.88;;
67193;SDS011;54121;53.508;49.422;2022-07-12T13:58:53;4.53;;;2.30;;
67193;SDS011;54121;53.508;49.422;2022-07-12T14:01:19;3.25;;;2.10;;
67193;SDS011;54121;53.508;49.422;2022-07-12T14:03:46;5.30;;;1.80;;
67193;SDS011;54121;53.508;49.422;2022-07-12T14:06:12;4.25;;;1.90;;
67193;SDS011;54121;53.508;49.422;2022-07-12T14:08:39;8.10;;;1.60;;
67193;SDS011;54121;53.508;49.422;2022-07-12T14:11:06;4.55;;;2.40;;
67193;SDS011;54121;53.508;49.422;2022-07-12T14:13:32;5.85;;;1.73;;
67193;SDS011;54121;53.508;49.422;2022-07-12T14:15:59;9.20;;;2.90;;
67193;SDS011;54121;53.508;49.422;2022-07-12T14:18:25;4.32;;;1.90;;
67193;SDS011;54121;53.508;49.422;2022-07-12T14:20:51;6.22;;;1.85;;
67193;SDS011;54121;53.508;49.422;2022-07-12T14:23:19;4.60;;;1.90;;
67193;SDS011;54121;53.508;49.422;2022-07-12T14:25:45;5.25;;;1.85;;
67193;SDS011;54121;53.508;49.422;2022-07-12T14:28:12;5.75;;;1.90;;
67193;SDS011;54121;53.508;49.422;2022-07-12T14:30:38;6.55;;;2.65;;
67193;SDS011;54121;53.508;49.422;2022-07-12T14:33:06;6.20;;;2.33;;
67193;SDS011;54121;53.508;49.422;2022-07-12T14:35:33;3.78;;;2.20;;
67193;SDS011;54121;53.508;49.422;2022-07-12T14:37:59;2.90;;;1.73;;
67193;SDS011;54121;53.508;49.422;2022-07-12T14:40:26;5.07;;;2.03;;
67193;SDS011;54121;53.508;49.422;2022-07-12T14:42:52;6.38;;;2.20;;
67193;SDS011;54121;53.508;49.422;2022-07-12T14:45:22;3.03;;;1.63;;
67193;SDS011;54121;53.508;49.422;2022-07-12T14:47:49;3.67;;;1.80;;
67193;SDS011;54121;53.508;49.422;2022-07-12T14:50:16;6.00;;;2.72;;
67193;SDS011;54121;53.508;49.422;2022-07-12T14:52:42;4.55;;;1.70;;
67193;SDS011;54121;53.508;49.422;2022-07-12T14:55:09;5.47;;;1.88;;
67193;SDS011;54121;53.508;49.422;2022-07-12T14:57:36;4.97;;;2.50;;
67193;SDS011;54121;53.508;49.422;2022-07-12T15:00:05;3.38;;;1.45;;
67193;SDS011;54121;53.508;49.422;2022-07-12T15:02:35;3.53;;;2.00;;
67193;SDS011;54121;53.508;49.422;2022-07-12T15:05:02;4.85;;;2.58;;
67193;SDS011;54121;53.508;49.422;2022-07-12T15:07:30;3.58;;;1.70;;
67193;SDS011;54121;53.508;49.422;2022-07-12T15:09:57;5.43;;;2.30;;
67193;SDS011;54121;53.508;49.422;2022-07-12T15:12:24;5.97;;;2.00;;
67193;SDS011;54121;53.508;49.422;2022-07-12T15:14:51;4.30;;;2.33;;
67193;SDS011;54121;53.508;49.422;2022-07-12T15:17:18;3.50;;;2.00;;
67193;SDS011;54121;53.508;49.422;2022-07-12T15:19:45;3.83;;;2.00;;